sensor_id;sensor_type;location;lat;lon;timestamp;P1;durP1;ratioP1;P2;durP2;ratioP2
4428;SDS011;2227;47.810;8.810;2022-09-29T03:49:43;11.98;;;7.68;;
4428;SDS011;2227;47.810;8.810;2022-09-29T03:52:10;10.18;;;6.68;;
4428;SDS011;2227;47.810;8.810;2022-09-29T03:54:37;10.73;;;6.88;;
4428;SDS011;2227;47.810;8.810;2022-09-29T03:57:03;8.95;;;6.05;;
4428;SDS011;2227;47.810;8.810;2022-09-29T03:59:30;11.63;;;6.90;;
4428;SDS011;2227;47.810;8.810;2022-09-29T04:01:57;11.00;;;6.85;;
4428;SDS011;2227;47.810;8.810;2022-09-29T04:04:24;8.50;;;6.03;;
4428;SDS011;2227;47.810;8.810;2022-09-29T04:06:51;9.52;;;5.90;;
4428;SDS011;2227;47.810;8.810;2022-09-29T04:09:17;9.80;;;5.88;;
4428;SDS011;2227;47.810;8.810;2022-09-29T04:11:44;9.35;;;5.70;;
4428;SDS011;2227;47.810;8.810;2022-09-29T04:14:11;8.45;;;5.55;;
4428;SDS011;2227;47.810;8.810;2022-09-29T04:16:37;9.88;;;6.00;;
4428;SDS011;2227;47.810;8.810;2022-09-29T04:19:04;9.60;;;5.60;;
4428;SDS011;2227;47.810;8.810;2022-09-29T04:21:31;9.25;;;5.75;;
4428;SDS011;2227;47.810;8.810;2022-09-29T04:23:58;9.05;;;6.05;;
4428;SDS011;2227;47.810;8.810;2022-09-29T04:26:25;10.23;;;6.53;;
4428;SDS011;2227;47.810;8.810;2022-09-29T04:28:51;9.60;;;6.18;;
4428;SDS011;2227;47.810;8.810;2022-09-29T04:31:18;10.18;;;6.00;;
4428;SDS011;2227;47.810;8.810;2022-09-29T04:33:45;9.73;;;5.68;;
4428;SDS011;2227;47.810;8.810;2022-09-29T04:36:11;9.10;;;5.85;;
4428;SDS011;2227;47.810;8.810;2022-09-29T04:38:38;11.57;;;6.20;;
4428;SDS011;2227;47.810;8.810;2022-09-29T04:41:05;10.50;;;6.25;;
4428;SDS011;2227;47.810;8.810;2022-09-29T04:43:32;9.43;;;5.47;;
4428;SDS011;2227;47.810;8.810;2022-09-29T04:46:05;11.07;;;5.72;;
4428;SDS011;2227;47.810;8.810;2022-09-29T04:48:33;9.55;;;5.80;;
4428;SDS011;2227;47.810;8.810;2022-09-29T04:51:01;9.48;;;6.20;;
4428;SDS011;2227;47.810;8.810;2022-09-29T04:53:28;9.60;;;5.90;;
4428;SDS011;2227;47.810;8.810;2022-09-29T04:55:55;8.70;;;5.90;;
4428;SDS011;2227;47.810;8.810;2022-09-29T04:58:22;9.63;;;5.85;;
4428;SDS011;2227;47.810;8.810;2022-09-29T05:00:49;9.40;;;5.60;;
4428;SDS011;2227;47.810;8.810;2022-09-29T05:03:15;8.90;;;5.57;;
4428;SDS011;2227;47.810;8.810;2022-09-29T05:05:42;9.07;;;5.22;;
4428;SDS011;2227;47.810;8.810;2022-09-29T05:08:09;10.45;;;5.68;;
4428;SDS011;2227;47.810;8.810;2022-09-29T05:10:35;10.85;;;5.95;;
4428;SDS011;2227;47.810;8.810;2022-09-29T05:13:02;9.48;;;5.97;;
4428;SDS011;2227;47.810;8.810;2022-09-29T05:15:29;8.82;;;5.82;;
4428;SDS011;2227;47.810;8.810;2022-09-29T05:17:56;8.02;;;5.75;;
4428;SDS011;2227;47.810;8.810;2022-09-29T05:20:26;9.02;;;5.45;;
4428;SDS011;2227;47.810;8.810;2022-09-29T05:23:01;8.73;;;5.82;;
4428;SDS011;2227;47.810;8.810;2022-09-29T05:25:33;8.90;;;5.80;;
4428;SDS011;2227;47.810;8.810;2022-09-29T05:28:01;9.00;;;5.32;;
4428;SDS011;2227;47.810;8.810;2022-09-29T05:30:28;10.30;;;6.10;;
4428;SDS011;2227;47.810;8.810;2022-09-29T05:32:54;9.45;;;5.70;;
4428;SDS011;2227;47.810;8.810;2022-09-29T05:35:24;10.70;;;6.15;;
4428;SDS011;2227;47.810;8.810;2022-09-29T05:37:51;8.85;;;6.45;;
4428;SDS011;2227;47.810;8.810;2022-09-29T05:40:17;10.82;;;6.22;;
4428;SDS011;2227;47.810;8.810;2022-09-29T05:42:44;10.38;;;5.78;;
4428;SDS011;2227;47.810;8.810;2022-09-29T05:45:11;9.65;;;5.63;;
4428;SDS011;2227;47.810;8.810;2022-09-29T05:47:41;9.88;;;6.38;;
4428;SDS011;2227;47.810;8.810;2022-09-29T05:50:09;11.17;;;6.37;;
4428;SDS011;2227;47.810;8.810;2022-09-29T05:52:37;11.65;;;6.43;;
4428;SDS011;2227;47.810;8.810;2022-09-29T05:55:05;13.55;;;9.55;;
4428;SDS011;2227;47.810;8.810;2022-09-29T05:57:36;11.85;;;8.05;;
4428;SDS011;2227;47.810;8.810;2022-09-29T06:00:03;13.65;;;8.90;;
4428;SDS011;2227;47.810;8.810;2022-09-29T06:02:31;14.25;;;9.00;;
4428;SDS011;2227;47.810;8.810;2022-09-29T06:04:59;11.85;;;8.10;;
4428;SDS011;2227;47.810;8.810;2022-09-29T06:07:26;13.48;;;8.30;;
4428;SDS011;2227;47.810;8.810;2022-09-29T06:09:52;13.18;;;8.13;;
4428;SDS011;2227;47.810;8.810;2022-09-29T06:12:20;12.93;;;7.32;;
4428;SDS011;2227;47.810;8.810;2022-09-29T06:14:47;10.60;;;7.50;;
4428;SDS011;2227;47.810;8.810;2022-09-29T06:17:13;14.25;;;7.85;;
4428;SDS011;2227;47.810;8.810;2022-09-29T06:19:41;13.13;;;7.80;;
4428;SDS011;2227;47.810;8.810;2022-09-29T06:22:10;14.15;;;8.35;;
4428;SDS011;2227;47.810;8.810;2022-09-29T06:24:36;14.93;;;9.45;;
4428;SDS011;2227;47.810;8.810;2022-09-29T06:27:03;13.65;;;8.63;;
4428;SDS011;2227;47.810;8.810;2022-09-29T06:29:30;14.50;;;9.52;;
4428;SDS011;2227;47.810;8.810;2022-09-29T06:31:56;13.20;;;9.02;;
4428;SDS011;2227;47.810;8.810;2022-09-29T06:34:23;13.80;;;8.48;;
4428;SDS011;2227;47.810;8.810;2022-09-29T06:36:50;13.27;;;7.90;;
4428;SDS011;2227;47.810;8.810;2022-09-29T06:39:36;12.98;;;8.48;;
4428;SDS011;2227;47.810;8.810;2022-09-29T06:42:03;10.55;;;7.03;;
4428;SDS011;2227;47.810;8.810;2022-09-29T06:44:30;10.90;;;6.75;;
4428;SDS011;2227;47.810;8.810;2022-09-29T06:46:57;12.98;;;8.38;;
4428;SDS011;2227;47.810;8.810;2022-09-29T06:49:24;11.43;;;7.53;;
4428;SDS011;2227;47.810;8.810;2022-09-29T06:51:51;9.65;;;6.97;;
4428;SDS011;2227;47.810;8.810;2022-09-29T06:54:19;10.80;;;5.80;;
4428;SDS011;2227;47.810;8.810;2022-09-29T06:56:47;10.90;;;6.82;;
4428;SDS011;2227;47.810;8.810;2022-09-29T06:59:15;11.20;;;6.53;;
4428;SDS011;2227;47.810;8.810;2022-09-29T07:01:42;11.73;;;7.20;;
4428;SDS011;2227;47.810;8.810;2022-09-29T07:04:09;10.18;;;6.75;;
4428;SDS011;2227;47.810;8.810;2022-09-29T07:06:36;10.48;;;6.43;;
4428;SDS011;2227;47.810;8.810;2022-09-29T07:09:02;10.55;;;6.53;;
4428;SDS011;2227;47.810;8.810;2022-09-29T07:11:29;12.57;;;6.38;;
4428;SDS011;2227;47.810;8.810;2022-09-29T07:13:56;9.88;;;5.45;;
4428;SDS011;2227;47.810;8.810;2022-09-29T07:16:23;10.23;;;6.22;;
4428;SDS011;2227;47.810;8.810;2022-09-29T07:18:50;10.98;;;7.20;;
4428;SDS011;2227;47.810;8.810;2022-09-29T07:21:17;12.00;;;7.95;;
4428;SDS011;2227;47.810;8.810;2022-09-29T07:23:46;13.73;;;9.43;;
4428;SDS011;2227;47.810;8.810;2022-09-29T07:26:14;14.30;;;9.20;;
4428;SDS011;2227;47.810;8.810;2022-09-29T07:28:42;12.75;;;8.10;;
4428;SDS011;2227;47.810;8.810;2022-09-29T07:31:11;15.52;;;9.13;;
4428;SDS011;2227;47.810;8.810;2022-09-29T07:33:44;13.27;;;8.25;;
4428;SDS011;2227;47.810;8.810;2022-09-29T07:36:13;13.05;;;8.00;;
4428;SDS011;2227;47.810;8.810;2022-09-29T07:38:41;11.75;;;8.35;;
4428;SDS011;2227;47.810;8.810;2022-09-29T07:41:11;10.10;;;7.53;;
4428;SDS011;2227;47.810;8.810;2022-09-29T07:43:38;11.88;;;8.02;;
4428;SDS011;2227;47.810;8.810;2022-09-29T07:46:05;13.73;;;8.43;;
4428;SDS011;2227;47.810;8.810;2022-09-29T07:48:34;7.57;;;5.53;;
4428;SDS011;2227;47.810;8.810;2022-09-29T07:51:02;9.43;;;6.00;;
4428;SDS011;2227;47.810;8.810;2022-09-29T07:53:40;8.65;;;6.07;;
4428;SDS011;2227;47.810;8.810;2022-09-29T07:56:16;10.15;;;6.10;;
4428;SDS011;2227;47.810;8.810;2022-09-29T07:58:45;11.68;;;7.15;;
4428;SDS011;2227;47.810;8.810;2022-09-29T08:01:13;9.63;;;6.68;;
4428;SDS011;2227;47.810;8.810;2022-09-29T08:03:42;10.43;;;6.75;;
4428;SDS011;2227;47.810;8.810;2022-09-29T08:06:15;9.75;;;6.13;;
4428;SDS011;2227;47.810;8.810;2022-09-29T08:08:42;8.55;;;6.10;;
4428;SDS011;2227;47.810;8.810;2022-09-29T08:11:25;7.97;;;4.80;;
4428;SDS011;2227;47.810;8.810;2022-09-29T08:13:57;7.53;;;4.32;;
4428;SDS011;2227;47.810;8.810;2022-09-29T08:16:25;6.82;;;4.22;;
4428;SDS011;2227;47.810;8.810;2022-09-29T08:18:52;6.47;;;4.28;;
4428;SDS011;2227;47.810;8.810;2022-09-29T08:21:18;7.32;;;4.22;;
4428;SDS011;2227;47.810;8.810;2022-09-29T08:23:45;6.32;;;4.28;;
4428;SDS011;2227;47.810;8.810;2022-09-29T08:26:13;6.60;;;3.90;;
4428;SDS011;2227;47.810;8.810;2022-09-29T08:28:42;6.57;;;4.47;;
4428;SDS011;2227;47.810;8.810;2022-09-29T08:31:17;6.15;;;3.67;;
4428;SDS011;2227;47.810;8.810;2022-09-29T08:33:47;5.80;;;4.00;;
4428;SDS011;2227;47.810;8.810;2022-09-29T08:36:16;6.13;;;4.00;;
4428;SDS011;2227;47.810;8.810;2022-09-29T08:38:47;5.90;;;3.60;;
4428;SDS011;2227;47.810;8.810;2022-09-29T08:46:59;6.60;;;5.00;;
4428;SDS011;2227;47.810;8.810;2022-09-29T08:49:44;7.13;;;5.20;;
4428;SDS011;2227;47.810;8.810;2022-09-29T08:52:20;6.88;;;4.60;;
4428;SDS011;2227;47.810;8.810;2022-09-29T08:54:56;8.60;;;4.93;;
4428;SDS011;2227;47.810;8.810;2022-09-29T08:57:42;7.40;;;5.43;;
4428;SDS011;2227;47.810;8.810;2022-09-29T09:00:11;7.72;;;5.10;;
4428;SDS011;2227;47.810;8.810;2022-09-29T09:13:58;8.60;;;4.97;;
4428;SDS011;2227;47.810;8.810;2022-09-29T09:16:59;8.27;;;4.80;;
4428;SDS011;2227;47.810;8.810;2022-09-29T09:19:47;6.32;;;3.95;;
4428;SDS011;2227;47.810;8.810;2022-09-29T09:22:21;6.30;;;4.13;;
4428;SDS011;2227;47.810;8.810;2022-09-29T09:24:59;6.57;;;4.72;;
4428;SDS011;2227;47.810;8.810;2022-09-29T09:27:38;6.75;;;4.55;;
4428;SDS011;2227;47.810;8.810;2022-09-29T09:30:14;9.03;;;5.27;;
4428;SDS011;2227;47.810;8.810;2022-09-29T09:32:53;8.23;;;5.10;;
4428;SDS011;2227;47.810;8.810;2022-09-29T09:37:57;8.60;;;4.97;;
4428;SDS011;2227;47.810;8.810;2022-09-29T09:40:32;7.00;;;4.75;;
4428;SDS011;2227;47.810;8.810;2022-09-29T09:45:50;7.40;;;4.13;;
4428;SDS011;2227;47.810;8.810;2022-09-29T09:48:34;6.13;;;3.90;;
4428;SDS011;2227;47.810;8.810;2022-09-29T09:54:10;6.07;;;3.58;;
4428;SDS011;2227;47.810;8.810;2022-09-29T10:02:15;6.33;;;3.77;;
4428;SDS011;2227;47.810;8.810;2022-09-29T10:04:46;5.18;;;3.35;;
4428;SDS011;2227;47.810;8.810;2022-09-29T10:07:16;5.25;;;2.92;;
4428;SDS011;2227;47.810;8.810;2022-09-29T10:09:45;4.53;;;2.97;;
4428;SDS011;2227;47.810;8.810;2022-09-29T10:12:16;5.13;;;3.22;;
4428;SDS011;2227;47.810;8.810;2022-09-29T10:17:45;6.57;;;3.00;;
4428;SDS011;2227;47.810;8.810;2022-09-29T10:20:14;5.60;;;2.97;;
4428;SDS011;2227;47.810;8.810;2022-09-29T10:23:14;5.82;;;2.58;;
4428;SDS011;2227;47.810;8.810;2022-09-29T10:25:50;6.03;;;3.58;;
4428;SDS011;2227;47.810;8.810;2022-09-29T10:28:24;5.88;;;2.88;;
4428;SDS011;2227;47.810;8.810;2022-09-29T10:30:54;6.85;;;3.13;;
4428;SDS011;2227;47.810;8.810;2022-09-29T10:33:22;4.68;;;2.80;;
4428;SDS011;2227;47.810;8.810;2022-09-29T10:36:01;5.38;;;2.95;;
4428;SDS011;2227;47.810;8.810;2022-09-29T10:38:32;5.68;;;3.08;;
4428;SDS011;2227;47.810;8.810;2022-09-29T10:41:06;5.25;;;2.45;;
4428;SDS011;2227;47.810;8.810;2022-09-29T10:43:38;5.80;;;3.15;;
4428;SDS011;2227;47.810;8.810;2022-09-29T10:52:02;3.33;;;2.08;;
4428;SDS011;2227;47.810;8.810;2022-09-29T10:57:22;3.40;;;2.00;;
4428;SDS011;2227;47.810;8.810;2022-09-29T10:59:54;3.67;;;1.77;;
4428;SDS011;2227;47.810;8.810;2022-09-29T11:02:23;4.30;;;2.30;;
4428;SDS011;2227;47.810;8.810;2022-09-29T11:05:00;4.82;;;2.47;;
4428;SDS011;2227;47.810;8.810;2022-09-29T11:09:57;3.50;;;1.80;;
4428;SDS011;2227;47.810;8.810;2022-09-29T11:12:31;4.05;;;2.05;;
4428;SDS011;2227;47.810;8.810;2022-09-29T11:15:23;3.65;;;1.90;;
4428;SDS011;2227;47.810;8.810;2022-09-29T11:18:04;3.92;;;1.88;;
4428;SDS011;2227;47.810;8.810;2022-09-29T11:21:16;3.40;;;1.70;;
4428;SDS011;2227;47.810;8.810;2022-09-29T11:26:42;2.80;;;1.60;;
4428;SDS011;2227;47.810;8.810;2022-09-29T11:32:12;3.17;;;1.70;;
4428;SDS011;2227;47.810;8.810;2022-09-29T11:37:32;2.67;;;1.40;;
4428;SDS011;2227;47.810;8.810;2022-09-29T11:41:12;5.05;;;1.73;;
4428;SDS011;2227;47.810;8.810;2022-09-29T11:59:39;6.82;;;6.13;;
4428;SDS011;2227;47.810;8.810;2022-09-29T12:07:51;7.45;;;3.70;;
4428;SDS011;2227;47.810;8.810;2022-09-29T12:13:52;6.85;;;3.75;;
4428;SDS011;2227;47.810;8.810;2022-09-29T12:16:25;7.47;;;3.85;;
4428;SDS011;2227;47.810;8.810;2022-09-29T12:21:41;6.65;;;3.15;;
4428;SDS011;2227;47.810;8.810;2022-09-29T12:24:13;5.78;;;2.85;;
4428;SDS011;2227;47.810;8.810;2022-09-29T12:26:56;7.65;;;3.08;;
4428;SDS011;2227;47.810;8.810;2022-09-29T12:29:27;4.82;;;2.30;;
4428;SDS011;2227;47.810;8.810;2022-09-29T12:32:03;4.53;;;2.30;;
4428;SDS011;2227;47.810;8.810;2022-09-29T12:34:54;5.70;;;2.33;;
4428;SDS011;2227;47.810;8.810;2022-09-29T12:37:35;4.18;;;2.00;;
4428;SDS011;2227;47.810;8.810;2022-09-29T12:40:11;4.07;;;1.83;;
4428;SDS011;2227;47.810;8.810;2022-09-29T12:45:21;4.43;;;1.65;;
4428;SDS011;2227;47.810;8.810;2022-09-29T12:48:16;5.47;;;1.98;;
4428;SDS011;2227;47.810;8.810;2022-09-29T12:53:50;4.07;;;1.65;;
4428;SDS011;2227;47.810;8.810;2022-09-29T12:57:02;8.63;;;4.68;;
4428;SDS011;2227;47.810;8.810;2022-09-29T13:04:51;4.57;;;1.73;;
4428;SDS011;2227;47.810;8.810;2022-09-29T13:13:22;2.75;;;1.00;;
4428;SDS011;2227;47.810;8.810;2022-09-29T13:16:02;4.63;;;1.40;;
4428;SDS011;2227;47.810;8.810;2022-09-29T13:27:25;3.65;;;1.10;;
4428;SDS011;2227;47.810;8.810;2022-09-29T13:32:39;2.40;;;1.00;;
4428;SDS011;2227;47.810;8.810;2022-09-29T13:35:14;3.03;;;1.17;;
4428;SDS011;2227;47.810;8.810;2022-09-29T13:37:46;3.67;;;1.40;;
4428;SDS011;2227;47.810;8.810;2022-09-29T13:40:17;11.68;;;2.60;;
4428;SDS011;2227;47.810;8.810;2022-09-29T13:42:53;4.45;;;1.73;;
4428;SDS011;2227;47.810;8.810;2022-09-29T13:47:57;2.38;;;0.93;;
4428;SDS011;2227;47.810;8.810;2022-09-29T13:58:32;1.77;;;0.70;;
4428;SDS011;2227;47.810;8.810;2022-09-29T14:01:02;1.45;;;0.60;;
4428;SDS011;2227;47.810;8.810;2022-09-29T14:03:34;1.80;;;0.90;;
4428;SDS011;2227;47.810;8.810;2022-09-29T14:09:03;1.45;;;0.52;;
4428;SDS011;2227;47.810;8.810;2022-09-29T14:11:38;1.20;;;0.65;;
4428;SDS011;2227;47.810;8.810;2022-09-29T14:14:19;0.82;;;0.40;;
4428;SDS011;2227;47.810;8.810;2022-09-29T14:16:49;0.70;;;0.30;;
4428;SDS011;2227;47.810;8.810;2022-09-29T14:21:56;1.00;;;0.40;;
4428;SDS011;2227;47.810;8.810;2022-09-29T14:27:19;1.58;;;0.40;;
4428;SDS011;2227;47.810;8.810;2022-09-29T14:29:55;0.75;;;0.20;;
4428;SDS011;2227;47.810;8.810;2022-09-29T14:38:40;3.65;;;1.63;;
4428;SDS011;2227;47.810;8.810;2022-09-29T14:46:25;1.40;;;0.30;;
4428;SDS011;2227;47.810;8.810;2022-09-29T15:00:45;1.42;;;0.32;;
4428;SDS011;2227;47.810;8.810;2022-09-29T15:03:31;1.52;;;0.47;;
4428;SDS011;2227;47.810;8.810;2022-09-29T15:06:13;0.45;;;0.20;;
4428;SDS011;2227;47.810;8.810;2022-09-29T15:08:51;0.43;;;0.20;;
4428;SDS011;2227;47.810;8.810;2022-09-29T15:11:23;0.80;;;0.30;;
4428;SDS011;2227;47.810;8.810;2022-09-29T15:25:23;0.95;;;0.32;;
4428;SDS011;2227;47.810;8.810;2022-09-29T15:27:57;1.92;;;0.20;;
4428;SDS011;2227;47.810;8.810;2022-09-29T15:30:29;0.75;;;0.52;;
4428;SDS011;2227;47.810;8.810;2022-09-29T15:35:56;3.03;;;0.65;;
4428;SDS011;2227;47.810;8.810;2022-09-29T15:40:53;1.55;;;0.55;;
4428;SDS011;2227;47.810;8.810;2022-09-29T15:43:26;2.38;;;1.08;;
4428;SDS011;2227;47.810;8.810;2022-09-29T15:45:56;2.08;;;1.00;;
4428;SDS011;2227;47.810;8.810;2022-09-29T15:48:25;2.65;;;0.65;;
4428;SDS011;2227;47.810;8.810;2022-09-29T15:50:53;1.58;;;0.75;;
4428;SDS011;2227;47.810;8.810;2022-09-29T15:53:21;1.80;;;0.70;;
4428;SDS011;2227;47.810;8.810;2022-09-29T15:55:49;2.03;;;1.38;;
4428;SDS011;2227;47.810;8.810;2022-09-29T16:00:58;2.08;;;0.80;;
4428;SDS011;2227;47.810;8.810;2022-09-29T16:03:36;2.40;;;1.00;;
4428;SDS011;2227;47.810;8.810;2022-09-29T16:06:20;2.67;;;1.45;;
4428;SDS011;2227;47.810;8.810;2022-09-29T16:09:03;2.65;;;1.58;;
4428;SDS011;2227;47.810;8.810;2022-09-29T16:11:34;1.30;;;0.82;;
4428;SDS011;2227;47.810;8.810;2022-09-29T16:14:05;2.05;;;1.02;;
4428;SDS011;2227;47.810;8.810;2022-09-29T16:16:35;2.63;;;1.27;;
4428;SDS011;2227;47.810;8.810;2022-09-29T16:19:12;2.65;;;1.40;;
4428;SDS011;2227;47.810;8.810;2022-09-29T16:21:43;4.15;;;2.65;;
4428;SDS011;2227;47.810;8.810;2022-09-29T16:24:14;6.38;;;5.43;;
4428;SDS011;2227;47.810;8.810;2022-09-29T16:26:49;7.07;;;5.07;;
4428;SDS011;2227;47.810;8.810;2022-09-29T16:31:45;5.65;;;4.05;;
4428;SDS011;2227;47.810;8.810;2022-09-29T16:39:18;4.55;;;2.85;;
4428;SDS011;2227;47.810;8.810;2022-09-29T16:41:47;4.50;;;2.53;;
4428;SDS011;2227;47.810;8.810;2022-09-29T16:44:16;5.32;;;3.10;;
4428;SDS011;2227;47.810;8.810;2022-09-29T16:49:35;3.75;;;2.45;;
4428;SDS011;2227;47.810;8.810;2022-09-29T16:54:39;6.43;;;2.85;;
4428;SDS011;2227;47.810;8.810;2022-09-29T16:59:51;4.72;;;2.85;;
4428;SDS011;2227;47.810;8.810;2022-09-29T17:02:25;5.32;;;2.67;;
4428;SDS011;2227;47.810;8.810;2022-09-29T17:04:53;4.57;;;2.50;;
4428;SDS011;2227;47.810;8.810;2022-09-29T17:07:23;4.75;;;2.88;;
4428;SDS011;2227;47.810;8.810;2022-09-29T17:09:53;4.65;;;3.20;;
4428;SDS011;2227;47.810;8.810;2022-09-29T17:12:22;5.57;;;3.00;;
4428;SDS011;2227;47.810;8.810;2022-09-29T17:14:50;4.95;;;3.00;;
4428;SDS011;2227;47.810;8.810;2022-09-29T17:17:26;6.13;;;2.75;;
4428;SDS011;2227;47.810;8.810;2022-09-29T17:19:54;5.13;;;3.70;;
4428;SDS011;2227;47.810;8.810;2022-09-29T17:22:28;4.82;;;3.10;;
4428;SDS011;2227;47.810;8.810;2022-09-29T17:25:02;6.63;;;3.70;;
4428;SDS011;2227;47.810;8.810;2022-09-29T17:27:29;5.60;;;3.65;;
4428;SDS011;2227;47.810;8.810;2022-09-29T17:30:16;4.82;;;3.47;;
4428;SDS011;2227;47.810;8.810;2022-09-29T17:32:46;6.50;;;4.15;;
4428;SDS011;2227;47.810;8.810;2022-09-29T17:35:14;7.00;;;4.60;;
4428;SDS011;2227;47.810;8.810;2022-09-29T17:37:43;6.18;;;5.30;;
4428;SDS011;2227;47.810;8.810;2022-09-29T17:40:29;5.18;;;4.28;;
4428;SDS011;2227;47.810;8.810;2022-09-29T17:43:02;5.28;;;4.10;;
4428;SDS011;2227;47.810;8.810;2022-09-29T17:45:29;7.30;;;6.55;;
4428;SDS011;2227;47.810;8.810;2022-09-29T17:48:02;5.35;;;4.07;;
4428;SDS011;2227;47.810;8.810;2022-09-29T17:51:03;5.90;;;3.83;;
4428;SDS011;2227;47.810;8.810;2022-09-29T17:53:25;5.82;;;4.45;;
4428;SDS011;2227;47.810;8.810;2022-09-29T17:55:53;6.30;;;4.45;;
4428;SDS011;2227;47.810;8.810;2022-09-29T17:58:22;7.93;;;7.15;;
4428;SDS011;2227;47.810;8.810;2022-09-29T18:00:50;6.13;;;4.40;;
4428;SDS011;2227;47.810;8.810;2022-09-29T18:03:18;6.80;;;4.05;;
4428;SDS011;2227;47.810;8.810;2022-09-29T18:05:47;4.55;;;3.25;;
4428;SDS011;2227;47.810;8.810;2022-09-29T18:08:21;5.55;;;4.05;;
4428;SDS011;2227;47.810;8.810;2022-09-29T18:10:54;6.20;;;3.97;;
4428;SDS011;2227;47.810;8.810;2022-09-29T18:13:24;5.70;;;4.05;;
4428;SDS011;2227;47.810;8.810;2022-09-29T18:15:53;5.28;;;3.88;;
4428;SDS011;2227;47.810;8.810;2022-09-29T18:18:21;5.63;;;4.13;;
4428;SDS011;2227;47.810;8.810;2022-09-29T18:20:49;5.50;;;3.72;;
4428;SDS011;2227;47.810;8.810;2022-09-29T18:23:16;7.65;;;6.40;;
4428;SDS011;2227;47.810;8.810;2022-09-29T18:25:44;5.63;;;4.47;;
4428;SDS011;2227;47.810;8.810;2022-09-29T18:28:13;8.90;;;5.43;;
4428;SDS011;2227;47.810;8.810;2022-09-29T18:30:41;15.07;;;9.27;;
4428;SDS011;2227;47.810;8.810;2022-09-29T18:33:11;17.23;;;10.80;;
4428;SDS011;2227;47.810;8.810;2022-09-29T18:35:43;7.95;;;5.78;;
4428;SDS011;2227;47.810;8.810;2022-09-29T18:38:11;5.13;;;3.15;;
4428;SDS011;2227;47.810;8.810;2022-09-29T18:40:38;5.10;;;3.17;;
4428;SDS011;2227;47.810;8.810;2022-09-29T18:43:05;4.15;;;3.45;;
4428;SDS011;2227;47.810;8.810;2022-09-29T18:45:36;8.18;;;5.70;;
4428;SDS011;2227;47.810;8.810;2022-09-29T18:48:09;4.45;;;3.70;;
4428;SDS011;2227;47.810;8.810;2022-09-29T18:50:47;5.53;;;3.35;;
4428;SDS011;2227;47.810;8.810;2022-09-29T18:53:16;13.85;;;10.27;;
4428;SDS011;2227;47.810;8.810;2022-09-29T18:55:45;14.45;;;11.40;;
4428;SDS011;2227;47.810;8.810;2022-09-29T18:58:15;26.60;;;19.45;;
4428;SDS011;2227;47.810;8.810;2022-09-29T19:00:44;20.05;;;15.73;;
4428;SDS011;2227;47.810;8.810;2022-09-29T19:03:13;10.80;;;6.97;;
4428;SDS011;2227;47.810;8.810;2022-09-29T19:05:40;31.75;;;22.70;;
4428;SDS011;2227;47.810;8.810;2022-09-29T19:08:09;31.02;;;25.02;;
4428;SDS011;2227;47.810;8.810;2022-09-29T19:10:38;17.42;;;12.95;;
4428;SDS011;2227;47.810;8.810;2022-09-29T19:13:08;13.90;;;10.60;;
4428;SDS011;2227;47.810;8.810;2022-09-29T19:15:39;9.55;;;6.32;;
4428;SDS011;2227;47.810;8.810;2022-09-29T19:18:08;7.18;;;5.80;;
4428;SDS011;2227;47.810;8.810;2022-09-29T19:20:39;8.13;;;5.95;;
4428;SDS011;2227;47.810;8.810;2022-09-29T19:23:05;9.80;;;8.48;;
4428;SDS011;2227;47.810;8.810;2022-09-29T19:25:34;11.15;;;7.65;;
4428;SDS011;2227;47.810;8.810;2022-09-29T19:28:02;9.25;;;7.85;;
4428;SDS011;2227;47.810;8.810;2022-09-29T19:30:31;6.72;;;5.57;;
4428;SDS011;2227;47.810;8.810;2022-09-29T19:33:00;6.18;;;4.00;;
4428;SDS011;2227;47.810;8.810;2022-09-29T19:35:27;4.82;;;3.05;;
4428;SDS011;2227;47.810;8.810;2022-09-29T19:37:54;4.60;;;3.42;;
4428;SDS011;2227;47.810;8.810;2022-09-29T19:40:23;5.15;;;3.50;;
4428;SDS011;2227;47.810;8.810;2022-09-29T19:42:52;4.82;;;3.97;;
4428;SDS011;2227;47.810;8.810;2022-09-29T19:45:20;4.30;;;3.55;;
4428;SDS011;2227;47.810;8.810;2022-09-29T19:47:47;6.13;;;3.30;;
4428;SDS011;2227;47.810;8.810;2022-09-29T19:50:18;4.68;;;3.50;;
4428;SDS011;2227;47.810;8.810;2022-09-29T19:53:04;5.50;;;4.10;;
4428;SDS011;2227;47.810;8.810;2022-09-29T19:55:31;6.55;;;4.40;;
4428;SDS011;2227;47.810;8.810;2022-09-29T19:57:58;4.30;;;3.38;;
4428;SDS011;2227;47.810;8.810;2022-09-29T20:00:24;5.60;;;4.07;;
4428;SDS011;2227;47.810;8.810;2022-09-29T20:02:51;5.95;;;4.47;;
4428;SDS011;2227;47.810;8.810;2022-09-29T20:05:19;6.70;;;4.25;;
4428;SDS011;2227;47.810;8.810;2022-09-29T20:07:45;5.55;;;4.20;;
4428;SDS011;2227;47.810;8.810;2022-09-29T20:10:14;5.35;;;4.18;;
4428;SDS011;2227;47.810;8.810;2022-09-29T20:12:45;5.97;;;3.95;;
4428;SDS011;2227;47.810;8.810;2022-09-29T20:15:12;6.18;;;3.88;;
4428;SDS011;2227;47.810;8.810;2022-09-29T20:17:40;5.50;;;3.80;;
4428;SDS011;2227;47.810;8.810;2022-09-29T20:20:09;6.40;;;4.40;;
4428;SDS011;2227;47.810;8.810;2022-09-29T20:22:36;6.47;;;4.45;;
4428;SDS011;2227;47.810;8.810;2022-09-29T20:25:04;7.25;;;4.47;;
4428;SDS011;2227;47.810;8.810;2022-09-29T20:27:33;5.78;;;4.10;;
4428;SDS011;2227;47.810;8.810;2022-09-29T20:30:01;7.63;;;4.32;;
4428;SDS011;2227;47.810;8.810;2022-09-29T20:32:30;5.97;;;4.38;;
4428;SDS011;2227;47.810;8.810;2022-09-29T20:34:59;6.28;;;4.30;;
4428;SDS011;2227;47.810;8.810;2022-09-29T20:37:25;6.90;;;4.15;;
4428;SDS011;2227;47.810;8.810;2022-09-29T20:39:54;5.75;;;4.32;;
4428;SDS011;2227;47.810;8.810;2022-09-29T20:42:21;7.57;;;4.28;;
4428;SDS011;2227;47.810;8.810;2022-09-29T20:44:48;7.03;;;4.25;;
4428;SDS011;2227;47.810;8.810;2022-09-29T20:47:20;5.82;;;4.10;;
4428;SDS011;2227;47.810;8.810;2022-09-29T20:49:49;6.60;;;4.38;;
4428;SDS011;2227;47.810;8.810;2022-09-29T20:52:16;7.10;;;4.95;;
4428;SDS011;2227;47.810;8.810;2022-09-29T20:54:43;7.63;;;4.85;;
4428;SDS011;2227;47.810;8.810;2022-09-29T20:57:13;6.57;;;4.45;;
4428;SDS011;2227;47.810;8.810;2022-09-29T20:59:41;5.97;;;4.15;;
4428;SDS011;2227;47.810;8.810;2022-09-29T21:02:09;6.20;;;4.55;;
4428;SDS011;2227;47.810;8.810;2022-09-29T21:04:37;5.60;;;4.50;;
4428;SDS011;2227;47.810;8.810;2022-09-29T21:07:03;6.25;;;4.38;;
4428;SDS011;2227;47.810;8.810;2022-09-29T21:09:50;8.23;;;5.45;;
4428;SDS011;2227;47.810;8.810;2022-09-29T21:12:17;5.50;;;4.20;;
4428;SDS011;2227;47.810;8.810;2022-09-29T21:14:44;6.32;;;4.60;;
4428;SDS011;2227;47.810;8.810;2022-09-29T21:17:11;5.60;;;3.92;;
4428;SDS011;2227;47.810;8.810;2022-09-29T21:19:38;5.65;;;3.80;;
4428;SDS011;2227;47.810;8.810;2022-09-29T21:22:04;4.57;;;3.35;;
4428;SDS011;2227;47.810;8.810;2022-09-29T21:24:31;4.95;;;3.63;;
4428;SDS011;2227;47.810;8.810;2022-09-29T21:26:59;5.22;;;4.20;;
4428;SDS011;2227;47.810;8.810;2022-09-29T21:29:26;6.80;;;4.57;;
4428;SDS011;2227;47.810;8.810;2022-09-29T21:31:53;6.10;;;3.88;;
4428;SDS011;2227;47.810;8.810;2022-09-29T21:34:20;5.25;;;3.75;;
4428;SDS011;2227;47.810;8.810;2022-09-29T21:36:47;4.85;;;3.72;;
4428;SDS011;2227;47.810;8.810;2022-09-29T21:39:14;7.90;;;5.03;;
4428;SDS011;2227;47.810;8.810;2022-09-29T21:41:42;11.68;;;9.00;;
4428;SDS011;2227;47.810;8.810;2022-09-29T21:44:17;25.63;;;18.55;;
4428;SDS011;2227;47.810;8.810;2022-09-29T21:46:46;13.02;;;8.93;;
4428;SDS011;2227;47.810;8.810;2022-09-29T21:49:13;7.25;;;4.65;;
4428;SDS011;2227;47.810;8.810;2022-09-29T21:51:42;4.80;;;4.13;;
4428;SDS011;2227;47.810;8.810;2022-09-29T21:54:21;6.47;;;4.30;;
4428;SDS011;2227;47.810;8.810;2022-09-29T21:56:50;5.90;;;3.58;;
4428;SDS011;2227;47.810;8.810;2022-09-29T21:59:18;6.97;;;4.32;;
4428;SDS011;2227;47.810;8.810;2022-09-29T22:01:47;5.60;;;4.38;;
4428;SDS011;2227;47.810;8.810;2022-09-29T22:04:15;10.65;;;5.43;;
4428;SDS011;2227;47.810;8.810;2022-09-29T22:06:42;6.20;;;4.75;;
4428;SDS011;2227;47.810;8.810;2022-09-29T22:09:11;6.85;;;5.07;;
4428;SDS011;2227;47.810;8.810;2022-09-29T22:11:41;6.57;;;5.22;;
4428;SDS011;2227;47.810;8.810;2022-09-29T22:14:08;5.18;;;4.20;;
4428;SDS011;2227;47.810;8.810;2022-09-29T22:16:36;5.65;;;4.85;;
4428;SDS011;2227;47.810;8.810;2022-09-29T22:19:03;6.55;;;5.03;;
4428;SDS011;2227;47.810;8.810;2022-09-29T22:21:49;15.13;;;11.88;;
4428;SDS011;2227;47.810;8.810;2022-09-29T22:24:16;10.55;;;8.15;;
4428;SDS011;2227;47.810;8.810;2022-09-29T22:26:42;7.78;;;6.10;;
4428;SDS011;2227;47.810;8.810;2022-09-29T22:29:09;8.63;;;6.80;;
4428;SDS011;2227;47.810;8.810;2022-09-29T22:31:36;15.95;;;11.18;;